sensor_id;sensor_type;location;lat;lon;timestamp;temperature;humidity
14411;DHT22;7290;50.854;4.354;2023-07-31T00:00:54;18.30;99.90
14411;DHT22;7290;50.854;4.354;2023-07-31T00:03:21;18.40;99.90
14411;DHT22;7290;50.854;4.354;2023-07-31T00:05:47;18.30;99.90
14411;DHT22;7290;50.854;4.354;2023-07-31T00:08:14;18.30;99.90
14411;DHT22;7290;50.854;4.354;2023-07-31T00:10:40;18.20;99.90
14411;DHT22;7290;50.854;4.354;2023-07-31T00:13:06;18.20;99.90
14411;DHT22;7290;50.854;4.354;2023-07-31T00:15:32;18.20;99.90
14411;DHT22;7290;50.854;4.354;2023-07-31T00:17:58;18.30;99.90
14411;DHT22;7290;50.854;4.354;2023-07-31T00:20:26;18.30;99.90
14411;DHT22;7290;50.854;4.354;2023-07-31T00:22:52;18.40;99.90
14411;DHT22;7290;50.854;4.354;2023-07-31T00:25:19;18.30;99.90
14411;DHT22;7290;50.854;4.354;2023-07-31T00:27:45;18.30;99.90
14411;DHT22;7290;50.854;4.354;2023-07-31T00:30:12;18.30;99.90
14411;DHT22;7290;50.854;4.354;2023-07-31T00:32:38;18.30;99.90
14411;DHT22;7290;50.854;4.354;2023-07-31T00:35:05;18.30;99.90
14411;DHT22;7290;50.854;4.354;2023-07-31T00:37:31;18.30;99.90
14411;DHT22;7290;50.854;4.354;2023-07-31T00:39:57;18.40;99.90
14411;DHT22;7290;50.854;4.354;2023-07-31T00:42:24;18.40;99.90
14411;DHT22;7290;50.854;4.354;2023-07-31T00:44:50;18.20;99.90
14411;DHT22;7290;50.854;4.354;2023-07-31T00:47:16;18.20;99.90
14411;DHT22;7290;50.854;4.354;2023-07-31T00:49:43;18.20;99.90
14411;DHT22;7290;50.854;4.354;2023-07-31T00:52:10;18.30;99.90
14411;DHT22;7290;50.854;4.354;2023-07-31T00:54:36;18.30;99.90
14411;DHT22;7290;50.854;4.354;2023-07-31T00:57:05;18.20;99.90
14411;DHT22;7290;50.854;4.354;2023-07-31T00:59:33;18.30;99.90
14411;DHT22;7290;50.854;4.354;2023-07-31T01:02:00;18.30;99.90
14411;DHT22;7290;50.854;4.354;2023-07-31T01:04:27;18.30;99.90
14411;DHT22;7290;50.854;4.354;2023-07-31T01:06:59;18.30;99.90
14411;DHT22;7290;50.854;4.354;2023-07-31T01:09:35;18.30;99.90
14411;DHT22;7290;50.854;4.354;2023-07-31T01:12:04;18.30;99.90
14411;DHT22;7290;50.854;4.354;2023-07-31T01:14:33;18.30;99.90
14411;DHT22;7290;50.854;4.354;2023-07-31T01:17:01;18.40;99.90
14411;DHT22;7290;50.854;4.354;2023-07-31T01:19:27;18.30;99.90
14411;DHT22;7290;50.854;4.354;2023-07-31T01:22:16;18.30;99.90
14411;DHT22;7290;50.854;4.354;2023-07-31T01:24:55;18.30;99.90
14411;DHT22;7290;50.854;4.354;2023-07-31T01:27:25;18.30;99.90
14411;DHT22;7290;50.854;4.354;2023-07-31T01:29:58;18.30;99.90
14411;DHT22;7290;50.854;4.354;2023-07-31T01:32:28;18.30;99.90
14411;DHT22;7290;50.854;4.354;2023-07-31T01:34:55;18.20;99.90
14411;DHT22;7290;50.854;4.354;2023-07-31T01:37:28;18.30;99.90
14411;DHT22;7290;50.854;4.354;2023-07-31T01:39:55;18.20;99.90
14411;DHT22;7290;50.854;4.354;2023-07-31T01:42:21;18.20;99.90
14411;DHT22;7290;50.854;4.354;2023-07-31T01:44:48;18.20;99.90
14411;DHT22;7290;50.854;4.354;2023-07-31T01:47:14;18.20;99.90
14411;DHT22;7290;50.854;4.354;2023-07-31T01:49:40;18.20;99.90
14411;DHT22;7290;50.854;4.354;2023-07-31T01:52:07;18.20;99.90
14411;DHT22;7290;50.854;4.354;2023-07-31T01:54:33;18.30;99.90
14411;DHT22;7290;50.854;4.354;2023-07-31T01:56:59;18.40;99.90
14411;DHT22;7290;50.854;4.354;2023-07-31T01:59:25;18.40;99.90
14411;DHT22;7290;50.854;4.354;2023-07-31T02:01:52;18.40;99.90
14411;DHT22;7290;50.854;4.354;2023-07-31T02:04:18;18.40;99.90
14411;DHT22;7290;50.854;4.354;2023-07-31T02:06:44;18.40;99.90
14411;DHT22;7290;50.854;4.354;2023-07-31T02:09:11;18.40;99.90
14411;DHT22;7290;50.854;4.354;2023-07-31T02:11:37;18.40;99.90
14411;DHT22;7290;50.854;4.354;2023-07-31T02:14:03;18.50;99.90
14411;DHT22;7290;50.854;4.354;2023-07-31T02:16:29;18.50;99.90
14411;DHT22;7290;50.854;4.354;2023-07-31T02:18:56;18.40;99.90
14411;DHT22;7290;50.854;4.354;2023-07-31T02:21:22;18.30;99.90
14411;DHT22;7290;50.854;4.354;2023-07-31T02:23:48;18.30;99.90
14411;DHT22;7290;50.854;4.354;2023-07-31T02:26:14;18.30;99.90
14411;DHT22;7290;50.854;4.354;2023-07-31T02:28:40;18.40;99.90
14411;DHT22;7290;50.854;4.354;2023-07-31T02:31:08;18.40;99.90
14411;DHT22;7290;50.854;4.354;2023-07-31T02:33:34;18.40;99.90
14411;DHT22;7290;50.854;4.354;2023-07-31T02:36:01;18.40;99.90
14411;DHT22;7290;50.854;4.354;2023-07-31T02:38:27;18.40;99.90
14411;DHT22;7290;50.854;4.354;2023-07-31T02:40:53;18.40;99.90
14411;DHT22;7290;50.854;4.354;2023-07-31T02:43:20;18.40;99.90
14411;DHT22;7290;50.854;4.354;2023-07-31T02:45:50;18.30;99.90
14411;DHT22;7290;50.854;4.354;2023-07-31T02:48:16;18.40;99.90
14411;DHT22;7290;50.854;4.354;2023-07-31T02:50:42;18.30;99.90
14411;DHT22;7290;50.854;4.354;2023-07-31T02:53:09;18.20;99.90
14411;DHT22;7290;50.854;4.354;2023-07-31T02:55:35;18.30;99.90
14411;DHT22;7290;50.854;4.354;2023-07-31T02:58:02;18.20;99.90
14411;DHT22;7290;50.854;4.354;2023-07-31T03:00:28;18.30;99.90
14411;DHT22;7290;50.854;4.354;2023-07-31T03:02:54;18.40;99.90
14411;DHT22;7290;50.854;4.354;2023-07-31T03:05:21;18.40;99.90
14411;DHT22;7290;50.854;4.354;2023-07-31T03:07:47;18.30;99.90
14411;DHT22;7290;50.854;4.354;2023-07-31T03:10:14;18.30;99.90
14411;DHT22;7290;50.854;4.354;2023-07-31T03:12:40;18.30;99.90
14411;DHT22;7290;50.854;4.354;2023-07-31T03:15:08;18.40;99.90
14411;DHT22;7290;50.854;4.354;2023-07-31T03:17:34;18.40;99.90
14411;DHT22;7290;50.854;4.354;2023-07-31T03:20:00;18.40;99.90
14411;DHT22;7290;50.854;4.354;2023-07-31T03:22:27;18.40;99.90
14411;DHT22;7290;50.854;4.354;2023-07-31T03:24:53;18.50;99.90
14411;DHT22;7290;50.854;4.354;2023-07-31T03:27:20;18.40;99.90
14411;DHT22;7290;50.854;4.354;2023-07-31T03:29:46;18.40;99.90
14411;DHT22;7290;50.854;4.354;2023-07-31T03:32:12;18.30;99.90
14411;DHT22;7290;50.854;4.354;2023-07-31T03:34:39;18.10;99.90
14411;DHT22;7290;50.854;4.354;2023-07-31T03:37:05;18.10;99.90
14411;DHT22;7290;50.854;4.354;2023-07-31T03:39:31;18.00;99.90
14411;DHT22;7290;50.854;4.354;2023-07-31T03:41:58;18.00;99.90
14411;DHT22;7290;50.854;4.354;2023-07-31T03:44:24;18.00;99.90
14411;DHT22;7290;50.854;4.354;2023-07-31T03:46:50;18.00;99.90
14411;DHT22;7290;50.854;4.354;2023-07-31T03:49:16;18.00;99.90
14411;DHT22;7290;50.854;4.354;2023-07-31T03:51:43;18.00;99.90
14411;DHT22;7290;50.854;4.354;2023-07-31T03:54:09;18.10;99.90
14411;DHT22;7290;50.854;4.354;2023-07-31T03:56:35;18.00;99.90
14411;DHT22;7290;50.854;4.354;2023-07-31T03:59:01;17.90;99.90
14411;DHT22;7290;50.854;4.354;2023-07-31T04:01:28;18.00;99.90
14411;DHT22;7290;50.854;4.354;2023-07-31T04:03:54;17.90;99.90
14411;DHT22;7290;50.854;4.354;2023-07-31T04:06:20;17.90;99.90
14411;DHT22;7290;50.854;4.354;2023-07-31T04:08:47;17.90;99.90
14411;DHT22;7290;50.854;4.354;2023-07-31T04:11:13;17.90;99.90
14411;DHT22;7290;50.854;4.354;2023-07-31T04:13:39;17.80;99.90
14411;DHT22;7290;50.854;4.354;2023-07-31T04:16:06;17.70;99.90
14411;DHT22;7290;50.854;4.354;2023-07-31T04:18:32;17.70;99.90
14411;DHT22;7290;50.854;4.354;2023-07-31T04:20:59;17.70;99.90
14411;DHT22;7290;50.854;4.354;2023-07-31T04:23:26;17.70;99.90
14411;DHT22;7290;50.854;4.354;2023-07-31T04:25:53;17.70;99.90
14411;DHT22;7290;50.854;4.354;2023-07-31T04:28:19;17.80;99.90
14411;DHT22;7290;50.854;4.354;2023-07-31T04:30:45;18.00;99.90
14411;DHT22;7290;50.854;4.354;2023-07-31T04:33:11;18.10;99.90
14411;DHT22;7290;50.854;4.354;2023-07-31T04:35:38;18.10;99.90
14411;DHT22;7290;50.854;4.354;2023-07-31T04:38:04;18.10;99.90
14411;DHT22;7290;50.854;4.354;2023-07-31T04:40:30;18.10;99.90
14411;DHT22;7290;50.854;4.354;2023-07-31T04:42:57;18.10;99.90
14411;DHT22;7290;50.854;4.354;2023-07-31T04:45:23;18.00;99.90
14411;DHT22;7290;50.854;4.354;2023-07-31T04:47:50;17.90;99.90
14411;DHT22;7290;50.854;4.354;2023-07-31T04:50:16;17.90;99.90
14411;DHT22;7290;50.854;4.354;2023-07-31T04:52:43;18.00;99.90
14411;DHT22;7290;50.854;4.354;2023-07-31T04:55:09;18.10;99.90
14411;DHT22;7290;50.854;4.354;2023-07-31T04:57:35;18.10;99.90
14411;DHT22;7290;50.854;4.354;2023-07-31T05:00:01;18.10;99.90
14411;DHT22;7290;50.854;4.354;2023-07-31T05:02:28;18.10;99.90
14411;DHT22;7290;50.854;4.354;2023-07-31T05:04:54;18.20;99.90
14411;DHT22;7290;50.854;4.354;2023-07-31T05:07:20;18.30;99.90
14411;DHT22;7290;50.854;4.354;2023-07-31T05:09:47;18.30;99.90
14411;DHT22;7290;50.854;4.354;2023-07-31T05:12:13;18.20;99.90
14411;DHT22;7290;50.854;4.354;2023-07-31T05:14:39;17.90;99.90
14411;DHT22;7290;50.854;4.354;2023-07-31T05:17:05;17.80;99.90
14411;DHT22;7290;50.854;4.354;2023-07-31T05:19:32;17.70;99.90
14411;DHT22;7290;50.854;4.354;2023-07-31T05:21:58;17.60;99.90
14411;DHT22;7290;50.854;4.354;2023-07-31T05:24:24;17.60;99.90
14411;DHT22;7290;50.854;4.354;2023-07-31T05:26:51;17.60;99.90
14411;DHT22;7290;50.854;4.354;2023-07-31T05:29:17;17.60;99.90
14411;DHT22;7290;50.854;4.354;2023-07-31T05:31:43;17.50;99.90
14411;DHT22;7290;50.854;4.354;2023-07-31T05:34:10;17.50;99.90
14411;DHT22;7290;50.854;4.354;2023-07-31T05:36:36;17.60;99.90
14411;DHT22;7290;50.854;4.354;2023-07-31T05:39:02;17.70;99.90
14411;DHT22;7290;50.854;4.354;2023-07-31T05:41:32;17.70;99.90
14411;DHT22;7290;50.854;4.354;2023-07-31T05:43:59;17.70;99.90
14411;DHT22;7290;50.854;4.354;2023-07-31T05:46:25;17.80;99.90
14411;DHT22;7290;50.854;4.354;2023-07-31T05:48:51;17.70;99.90
14411;DHT22;7290;50.854;4.354;2023-07-31T05:51:17;17.70;99.90
14411;DHT22;7290;50.854;4.354;2023-07-31T05:53:43;17.70;99.90
14411;DHT22;7290;50.854;4.354;2023-07-31T05:56:09;17.70;99.90
14411;DHT22;7290;50.854;4.354;2023-07-31T05:58:36;17.70;99.90
14411;DHT22;7290;50.854;4.354;2023-07-31T06:01:02;17.70;99.90
14411;DHT22;7290;50.854;4.354;2023-07-31T06:03:29;17.70;99.90
14411;DHT22;7290;50.854;4.354;2023-07-31T06:05:54;17.80;99.90
14411;DHT22;7290;50.854;4.354;2023-07-31T06:08:21;17.90;99.90
14411;DHT22;7290;50.854;4.354;2023-07-31T06:10:47;17.90;99.90
14411;DHT22;7290;50.854;4.354;2023-07-31T06:13:13;17.90;99.90
14411;DHT22;7290;50.854;4.354;2023-07-31T06:15:39;18.00;99.90
14411;DHT22;7290;50.854;4.354;2023-07-31T06:18:06;17.80;99.90
14411;DHT22;7290;50.854;4.354;2023-07-31T06:20:33;17.80;99.90
14411;DHT22;7290;50.854;4.354;2023-07-31T06:22:59;17.90;99.90
14411;DHT22;7290;50.854;4.354;2023-07-31T06:25:26;17.90;99.90
14411;DHT22;7290;50.854;4.354;2023-07-31T06:27:52;18.00;99.90
14411;DHT22;7290;50.854;4.354;2023-07-31T06:30:19;18.10;99.90
14411;DHT22;7290;50.854;4.354;2023-07-31T06:32:45;18.10;99.90
14411;DHT22;7290;50.854;4.354;2023-07-31T06:35:12;18.10;99.90
14411;DHT22;7290;50.854;4.354;2023-07-31T06:37:38;18.10;99.90
14411;DHT22;7290;50.854;4.354;2023-07-31T06:40:07;18.20;99.90
14411;DHT22;7290;50.854;4.354;2023-07-31T06:42:34;18.30;99.90
14411;DHT22;7290;50.854;4.354;2023-07-31T06:45:00;18.20;99.90
14411;DHT22;7290;50.854;4.354;2023-07-31T06:47:27;18.20;99.90
14411;DHT22;7290;50.854;4.354;2023-07-31T06:49:55;18.30;99.90
14411;DHT22;7290;50.854;4.354;2023-07-31T06:52:22;18.40;99.90
14411;DHT22;7290;50.854;4.354;2023-07-31T06:55:00;18.70;99.90
14411;DHT22;7290;50.854;4.354;2023-07-31T06:57:27;18.80;99.90
14411;DHT22;7290;50.854;4.354;2023-07-31T06:59:53;18.70;99.90
14411;DHT22;7290;50.854;4.354;2023-07-31T07:02:19;18.60;99.90
14411;DHT22;7290;50.854;4.354;2023-07-31T07:04:46;18.70;99.90
14411;DHT22;7290;50.854;4.354;2023-07-31T07:07:12;18.90;99.90
14411;DHT22;7290;50.854;4.354;2023-07-31T07:09:40;19.10;99.90
14411;DHT22;7290;50.854;4.354;2023-07-31T07:12:07;19.00;99.90
14411;DHT22;7290;50.854;4.354;2023-07-31T07:14:34;19.00;99.90
14411;DHT22;7290;50.854;4.354;2023-07-31T07:17:00;19.10;99.90
14411;DHT22;7290;50.854;4.354;2023-07-31T07:19:26;19.10;99.90
14411;DHT22;7290;50.854;4.354;2023-07-31T07:21:53;19.30;99.90
14411;DHT22;7290;50.854;4.354;2023-07-31T07:24:19;19.20;99.90
14411;DHT22;7290;50.854;4.354;2023-07-31T07:26:46;19.20;99.90
14411;DHT22;7290;50.854;4.354;2023-07-31T07:29:12;19.10;99.90
14411;DHT22;7290;50.854;4.354;2023-07-31T07:31:38;19.00;99.90
14411;DHT22;7290;50.854;4.354;2023-07-31T07:34:04;18.90;99.90
14411;DHT22;7290;50.854;4.354;2023-07-31T07:36:31;18.70;99.90
14411;DHT22;7290;50.854;4.354;2023-07-31T07:38:58;18.70;99.90
14411;DHT22;7290;50.854;4.354;2023-07-31T07:41:24;18.80;99.90
14411;DHT22;7290;50.854;4.354;2023-07-31T07:43:51;18.90;99.90
14411;DHT22;7290;50.854;4.354;2023-07-31T07:46:17;18.90;99.90
14411;DHT22;7290;50.854;4.354;2023-07-31T07:48:43;18.90;99.90
14411;DHT22;7290;50.854;4.354;2023-07-31T07:51:10;19.00;99.90
14411;DHT22;7290;50.854;4.354;2023-07-31T07:53:36;19.00;99.90
14411;DHT22;7290;50.854;4.354;2023-07-31T07:56:02;19.10;99.90
14411;DHT22;7290;50.854;4.354;2023-07-31T07:58:30;19.20;99.90
14411;DHT22;7290;50.854;4.354;2023-07-31T08:00:57;19.20;99.90
14411;DHT22;7290;50.854;4.354;2023-07-31T08:03:23;19.10;99.90
14411;DHT22;7290;50.854;4.354;2023-07-31T08:05:50;19.10;99.90
14411;DHT22;7290;50.854;4.354;2023-07-31T08:08:16;19.10;99.90
14411;DHT22;7290;50.854;4.354;2023-07-31T08:10:43;19.10;99.90
14411;DHT22;7290;50.854;4.354;2023-07-31T08:13:10;19.10;99.90
14411;DHT22;7290;50.854;4.354;2023-07-31T08:15:37;19.20;99.90
14411;DHT22;7290;50.854;4.354;2023-07-31T08:18:04;19.00;99.90
14411;DHT22;7290;50.854;4.354;2023-07-31T08:20:30;19.00;99.90
14411;DHT22;7290;50.854;4.354;2023-07-31T08:22:56;19.10;99.90
14411;DHT22;7290;50.854;4.354;2023-07-31T08:25:23;19.00;99.90
14411;DHT22;7290;50.854;4.354;2023-07-31T08:27:50;19.10;99.90
14411;DHT22;7290;50.854;4.354;2023-07-31T08:30:18;18.90;99.90
14411;DHT22;7290;50.854;4.354;2023-07-31T08:32:45;18.80;99.90
14411;DHT22;7290;50.854;4.354;2023-07-31T08:35:12;18.80;99.90
14411;DHT22;7290;50.854;4.354;2023-07-31T08:37:45;18.80;99.90
14411;DHT22;7290;50.854;4.354;2023-07-31T08:40:11;19.00;99.90
14411;DHT22;7290;50.854;4.354;2023-07-31T08:42:43;18.90;99.90
14411;DHT22;7290;50.854;4.354;2023-07-31T08:45:13;18.80;99.90
14411;DHT22;7290;50.854;4.354;2023-07-31T08:47:41;18.80;99.90
14411;DHT22;7290;50.854;4.354;2023-07-31T08:50:08;18.80;99.90
14411;DHT22;7290;50.854;4.354;2023-07-31T08:52:36;18.90;99.90
14411;DHT22;7290;50.854;4.354;2023-07-31T08:55:03;18.90;99.90
14411;DHT22;7290;50.854;4.354;2023-07-31T08:57:35;18.90;99.90
14411;DHT22;7290;50.854;4.354;2023-07-31T09:00:02;19.00;99.90
14411;DHT22;7290;50.854;4.354;2023-07-31T09:02:46;18.90;99.90
14411;DHT22;7290;50.854;4.354;2023-07-31T09:05:12;19.00;99.90
14411;DHT22;7290;50.854;4.354;2023-07-31T09:07:39;19.00;99.90
14411;DHT22;7290;50.854;4.354;2023-07-31T09:10:07;19.00;99.90
14411;DHT22;7290;50.854;4.354;2023-07-31T09:12:33;19.00;99.90
14411;DHT22;7290;50.854;4.354;2023-07-31T09:15:01;19.00;99.90
14411;DHT22;7290;50.854;4.354;2023-07-31T09:17:30;19.30;99.90
14411;DHT22;7290;50.854;4.354;2023-07-31T09:19:57;19.30;99.90
14411;DHT22;7290;50.854;4.354;2023-07-31T09:22:32;19.40;99.90
14411;DHT22;7290;50.854;4.354;2023-07-31T09:25:14;19.30;99.90
14411;DHT22;7290;50.854;4.354;2023-07-31T09:27:46;19.40;99.90
14411;DHT22;7290;50.854;4.354;2023-07-31T09:30:13;19.60;99.90
14411;DHT22;7290;50.854;4.354;2023-07-31T09:32:39;19.60;99.90
14411;DHT22;7290;50.854;4.354;2023-07-31T09:35:14;19.70;99.90
14411;DHT22;7290;50.854;4.354;2023-07-31T09:37:44;19.70;99.90
14411;DHT22;7290;50.854;4.354;2023-07-31T09:40:25;19.50;99.90
14411;DHT22;7290;50.854;4.354;2023-07-31T09:42:51;19.30;99.90
14411;DHT22;7290;50.854;4.354;2023-07-31T09:45:18;19.50;99.90
14411;DHT22;7290;50.854;4.354;2023-07-31T09:47:46;19.30;99.90
14411;DHT22;7290;50.854;4.354;2023-07-31T09:50:14;19.20;99.90
14411;DHT22;7290;50.854;4.354;2023-07-31T09:52:40;19.20;99.90
14411;DHT22;7290;50.854;4.354;2023-07-31T09:55:07;19.20;99.90
14411;DHT22;7290;50.854;4.354;2023-07-31T09:57:37;19.30;99.90
14411;DHT22;7290;50.854;4.354;2023-07-31T10:00:06;19.20;99.90
14411;DHT22;7290;50.854;4.354;2023-07-31T10:02:35;19.20;99.90
14411;DHT22;7290;50.854;4.354;2023-07-31T10:05:03;19.30;99.90
14411;DHT22;7290;50.854;4.354;2023-07-31T10:07:31;19.10;99.90
14411;DHT22;7290;50.854;4.354;2023-07-31T10:10:00;19.10;99.90
14411;DHT22;7290;50.854;4.354;2023-07-31T10:12:27;19.20;99.90
14411;DHT22;7290;50.854;4.354;2023-07-31T10:14:55;19.30;99.90
14411;DHT22;7290;50.854;4.354;2023-07-31T10:17:22;19.20;99.90
14411;DHT22;7290;50.854;4.354;2023-07-31T10:19:49;19.40;99.90
14411;DHT22;7290;50.854;4.354;2023-07-31T10:22:16;19.40;99.90
14411;DHT22;7290;50.854;4.354;2023-07-31T10:24:45;19.50;99.90
14411;DHT22;7290;50.854;4.354;2023-07-31T10:27:11;19.80;99.90
14411;DHT22;7290;50.854;4.354;2023-07-31T10:29:39;19.80;99.90
14411;DHT22;7290;50.854;4.354;2023-07-31T10:32:08;19.60;99.90
14411;DHT22;7290;50.854;4.354;2023-07-31T10:34:39;19.60;99.90
14411;DHT22;7290;50.854;4.354;2023-07-31T10:37:26;19.70;99.90
14411;DHT22;7290;50.854;4.354;2023-07-31T10:39:58;19.70;99.90
14411;DHT22;7290;50.854;4.354;2023-07-31T10:42:32;19.70;99.90
14411;DHT22;7290;50.854;4.354;2023-07-31T10:45:01;19.70;99.90
14411;DHT22;7290;50.854;4.354;2023-07-31T10:47:28;19.80;99.90
14411;DHT22;7290;50.854;4.354;2023-07-31T10:50:19;19.80;99.90
14411;DHT22;7290;50.854;4.354;2023-07-31T10:52:50;19.80;99.90
14411;DHT22;7290;50.854;4.354;2023-07-31T10:55:31;19.70;99.90
14411;DHT22;7290;50.854;4.354;2023-07-31T10:57:58;20.10;99.90
14411;DHT22;7290;50.854;4.354;2023-07-31T11:00:30;20.20;99.90
14411;DHT22;7290;50.854;4.354;2023-07-31T11:03:02;20.40;99.90
14411;DHT22;7290;50.854;4.354;2023-07-31T11:05:49;20.40;99.90
14411;DHT22;7290;50.854;4.354;2023-07-31T11:08:17;20.60;99.90
14411;DHT22;7290;50.854;4.354;2023-07-31T11:10:45;20.50;99.90
14411;DHT22;7290;50.854;4.354;2023-07-31T11:13:12;20.70;99.90
14411;DHT22;7290;50.854;4.354;2023-07-31T11:15:39;20.90;99.90
14411;DHT22;7290;50.854;4.354;2023-07-31T11:18:06;21.00;99.90
14411;DHT22;7290;50.854;4.354;2023-07-31T11:20:37;21.00;99.90
14411;DHT22;7290;50.854;4.354;2023-07-31T11:23:05;21.10;99.90
14411;DHT22;7290;50.854;4.354;2023-07-31T11:25:32;21.00;99.90
14411;DHT22;7290;50.854;4.354;2023-07-31T11:28:03;21.10;99.90
14411;DHT22;7290;50.854;4.354;2023-07-31T11:30:29;20.90;99.90
14411;DHT22;7290;50.854;4.354;2023-07-31T11:32:56;20.70;99.90
14411;DHT22;7290;50.854;4.354;2023-07-31T11:35:23;20.60;99.90
14411;DHT22;7290;50.854;4.354;2023-07-31T11:37:49;20.70;99.90
14411;DHT22;7290;50.854;4.354;2023-07-31T11:40:16;20.60;99.90
14411;DHT22;7290;50.854;4.354;2023-07-31T11:42:42;20.60;99.90
14411;DHT22;7290;50.854;4.354;2023-07-31T11:45:09;20.60;99.90
14411;DHT22;7290;50.854;4.354;2023-07-31T11:47:36;20.70;99.90
14411;DHT22;7290;50.854;4.354;2023-07-31T11:50:03;20.80;99.90
14411;DHT22;7290;50.854;4.354;2023-07-31T11:52:34;20.90;99.90
14411;DHT22;7290;50.854;4.354;2023-07-31T11:55:02;21.00;99.90
14411;DHT22;7290;50.854;4.354;2023-07-31T11:57:29;20.90;99.90
14411;DHT22;7290;50.854;4.354;2023-07-31T11:59:56;20.80;99.90
14411;DHT22;7290;50.854;4.354;2023-07-31T12:02:23;20.80;99.90
14411;DHT22;7290;50.854;4.354;2023-07-31T12:04:50;21.00;99.90
14411;DHT22;7290;50.854;4.354;2023-07-31T12:07:16;21.00;99.90
14411;DHT22;7290;50.854;4.354;2023-07-31T12:09:52;21.10;99.90
14411;DHT22;7290;50.854;4.354;2023-07-31T12:12:20;21.10;99.90
14411;DHT22;7290;50.854;4.354;2023-07-31T12:14:47;21.30;99.90
14411;DHT22;7290;50.854;4.354;2023-07-31T12:17:14;21.30;99.90
14411;DHT22;7290;50.854;4.354;2023-07-31T12:19:40;21.20;99.90
14411;DHT22;7290;50.854;4.354;2023-07-31T12:22:11;21.20;99.90
14411;DHT22;7290;50.854;4.354;2023-07-31T12:24:39;21.10;99.90
14411;DHT22;7290;50.854;4.354;2023-07-31T12:27:10;20.90;99.90
14411;DHT22;7290;50.854;4.354;2023-07-31T12:29:36;21.00;99.90
14411;DHT22;7290;50.854;4.354;2023-07-31T12:32:02;21.20;99.90
14411;DHT22;7290;50.854;4.354;2023-07-31T12:34:29;21.20;99.90
14411;DHT22;7290;50.854;4.354;2023-07-31T12:36:56;21.00;99.90
14411;DHT22;7290;50.854;4.354;2023-07-31T12:39:23;21.00;99.90
14411;DHT22;7290;50.854;4.354;2023-07-31T12:41:50;21.20;99.90
14411;DHT22;7290;50.854;4.354;2023-07-31T12:44:16;21.30;99.90
14411;DHT22;7290;50.854;4.354;2023-07-31T12:46:43;21.30;99.90
14411;DHT22;7290;50.854;4.354;2023-07-31T12:49:09;21.30;99.90
14411;DHT22;7290;50.854;4.354;2023-07-31T12:51:35;21.50;99.90
14411;DHT22;7290;50.854;4.354;2023-07-31T12:54:02;21.80;99.90
14411;DHT22;7290;50.854;4.354;2023-07-31T12:56:28;21.60;99.90
14411;DHT22;7290;50.854;4.354;2023-07-31T12:58:54;21.60;99.90
14411;DHT22;7290;50.854;4.354;2023-07-31T13:01:22;21.40;99.90
14411;DHT22;7290;50.854;4.354;2023-07-31T13:03:48;21.20;99.90
14411;DHT22;7290;50.854;4.354;2023-07-31T13:06:14;21.10;99.90
14411;DHT22;7290;50.854;4.354;2023-07-31T13:08:41;21.00;99.90
14411;DHT22;7290;50.854;4.354;2023-07-31T13:11:07;20.70;99.90
14411;DHT22;7290;50.854;4.354;2023-07-31T13:13:33;20.70;99.90
14411;DHT22;7290;50.854;4.354;2023-07-31T13:15:59;20.70;99.90
14411;DHT22;7290;50.854;4.354;2023-07-31T13:18:26;20.60;99.90
14411;DHT22;7290;50.854;4.354;2023-07-31T13:20:52;20.40;99.90
14411;DHT22;7290;50.854;4.354;2023-07-31T13:23:18;20.20;99.90
14411;DHT22;7290;50.854;4.354;2023-07-31T13:25:44;20.20;99.90
14411;DHT22;7290;50.854;4.354;2023-07-31T13:28:11;20.10;99.90
14411;DHT22;7290;50.854;4.354;2023-07-31T13:30:37;20.10;99.90
14411;DHT22;7290;50.854;4.354;2023-07-31T13:33:03;20.10;99.90
14411;DHT22;7290;50.854;4.354;2023-07-31T13:35:30;20.10;99.90
14411;DHT22;7290;50.854;4.354;2023-07-31T13:37:57;20.10;99.90
14411;DHT22;7290;50.854;4.354;2023-07-31T13:40:23;20.00;99.90
14411;DHT22;7290;50.854;4.354;2023-07-31T13:42:49;19.70;99.90
14411;DHT22;7290;50.854;4.354;2023-07-31T13:45:15;19.60;99.90
14411;DHT22;7290;50.854;4.354;2023-07-31T13:47:41;19.50;99.90
14411;DHT22;7290;50.854;4.354;2023-07-31T13:50:08;19.50;99.90
14411;DHT22;7290;50.854;4.354;2023-07-31T13:52:35;19.60;99.90
14411;DHT22;7290;50.854;4.354;2023-07-31T13:55:01;19.60;99.90
14411;DHT22;7290;50.854;4.354;2023-07-31T13:57:29;19.40;99.90
14411;DHT22;7290;50.854;4.354;2023-07-31T13:59:55;19.40;99.90
14411;DHT22;7290;50.854;4.354;2023-07-31T14:02:21;19.30;99.90
14411;DHT22;7290;50.854;4.354;2023-07-31T14:04:47;19.40;99.90
14411;DHT22;7290;50.854;4.354;2023-07-31T14:07:13;19.50;99.90
14411;DHT22;7290;50.854;4.354;2023-07-31T14:09:40;19.40;99.90
14411;DHT22;7290;50.854;4.354;2023-07-31T14:12:07;19.50;99.90
14411;DHT22;7290;50.854;4.354;2023-07-31T14:14:33;19.50;99.90
14411;DHT22;7290;50.854;4.354;2023-07-31T14:16:59;19.50;99.90
14411;DHT22;7290;50.854;4.354;2023-07-31T14:19:25;19.60;99.90
14411;DHT22;7290;50.854;4.354;2023-07-31T14:21:52;19.50;99.90
14411;DHT22;7290;50.854;4.354;2023-07-31T14:24:18;19.50;99.90
14411;DHT22;7290;50.854;4.354;2023-07-31T14:26:44;19.30;99.90
14411;DHT22;7290;50.854;4.354;2023-07-31T14:29:11;19.40;99.90
14411;DHT22;7290;50.854;4.354;2023-07-31T14:31:37;19.60;99.90
14411;DHT22;7290;50.854;4.354;2023-07-31T14:34:03;19.60;99.90
14411;DHT22;7290;50.854;4.354;2023-07-31T14:36:29;19.70;99.90
14411;DHT22;7290;50.854;4.354;2023-07-31T14:38:55;19.70;99.90
14411;DHT22;7290;50.854;4.354;2023-07-31T14:41:21;19.70;99.90
14411;DHT22;7290;50.854;4.354;2023-07-31T14:43:48;19.70;99.90
14411;DHT22;7290;50.854;4.354;2023-07-31T14:46:14;19.60;99.90
14411;DHT22;7290;50.854;4.354;2023-07-31T14:48:41;19.50;99.90
14411;DHT22;7290;50.854;4.354;2023-07-31T14:51:07;19.60;99.90
14411;DHT22;7290;50.854;4.354;2023-07-31T14:53:33;19.60;99.90
14411;DHT22;7290;50.854;4.354;2023-07-31T14:56:02;19.70;99.90
14411;DHT22;7290;50.854;4.354;2023-07-31T14:58:28;19.80;99.90
14411;DHT22;7290;50.854;4.354;2023-07-31T15:00:55;19.70;99.90
14411;DHT22;7290;50.854;4.354;2023-07-31T15:03:21;19.50;99.90
14411;DHT22;7290;50.854;4.354;2023-07-31T15:05:47;19.30;99.90
14411;DHT22;7290;50.854;4.354;2023-07-31T15:08:14;19.40;99.90
14411;DHT22;7290;50.854;4.354;2023-07-31T15:10:40;19.40;99.90
14411;DHT22;7290;50.854;4.354;2023-07-31T15:13:06;19.40;99.90
14411;DHT22;7290;50.854;4.354;2023-07-31T15:15:32;19.40;99.90
14411;DHT22;7290;50.854;4.354;2023-07-31T15:17:59;19.40;99.90
14411;DHT22;7290;50.854;4.354;2023-07-31T15:20:25;19.20;99.90
14411;DHT22;7290;50.854;4.354;2023-07-31T15:22:51;19.20;99.90
14411;DHT22;7290;50.854;4.354;2023-07-31T15:25:17;19.30;99.90
14411;DHT22;7290;50.854;4.354;2023-07-31T15:27:43;19.30;99.90
14411;DHT22;7290;50.854;4.354;2023-07-31T15:30:10;19.50;99.90
14411;DHT22;7290;50.854;4.354;2023-07-31T15:32:37;19.60;99.90
14411;DHT22;7290;50.854;4.354;2023-07-31T15:35:05;19.60;99.90
14411;DHT22;7290;50.854;4.354;2023-07-31T15:37:31;19.50;99.90
14411;DHT22;7290;50.854;4.354;2023-07-31T15:39:57;19.40;99.90
14411;DHT22;7290;50.854;4.354;2023-07-31T15:42:23;19.50;99.90
14411;DHT22;7290;50.854;4.354;2023-07-31T15:44:50;19.50;99.90